Time;durP1;ratioP1;P1;durP2;ratioP2;P2;SDS_P1;SDS_P2;PMS_P1;PMS_P2;Temp;Humidity;BMP_temperature;BMP_pressure;BME280_temperature;BME280_humidity;BME280_pressure;Samples;Min_cycle;Max_cycle;Signal;HPM_P1;HPM_P2
2024/01/31 00:01:19;;;;;;;5.88;3.58;;;4.00;93.40;;;;;;5051036;28;20039;-77
2024/01/31 00:03:45;;;;;;;6.90;3.60;;;3.90;93.50;;;;;;5051083;28;20117;-78
2024/01/31 00:06:11;;;;;;;7.00;3.90;;;4.00;93.40;;;;;;5052131;28;20086;-77
2024/01/31 00:08:37;;;;;;;9.50;3.95;;;4.00;93.30;;;;;;5051034;28;20152;-78
2024/01/31 00:11:03;;;;;;;7.10;2.95;;;4.10;93.30;;;;;;5051785;28;20462;-77
2024/01/31 00:13:29;;;;;;;8.48;3.67;;;4.20;93.20;;;;;;5050994;28;20024;-78
2024/01/31 00:15:55;;;;;;;5.68;3.55;;;4.30;93.10;;;;;;5050880;28;20036;-78
2024/01/31 00:18:20;;;;;;;7.10;3.97;;;4.40;93.30;;;;;;5051918;28;20070;-78
2024/01/31 00:20:46;;;;;;;6.63;3.22;;;4.20;93.50;;;;;;5056167;28;20033;-78
2024/01/31 00:23:12;;;;;;;6.10;3.58;;;4.00;93.70;;;;;;5055827;28;20139;-78
2024/01/31 00:25:38;;;;;;;8.50;3.88;;;4.00;93.60;;;;;;5055751;28;20128;-78
2024/01/31 00:28:04;;;;;;;6.45;3.40;;;3.90;93.70;;;;;;5055191;28;20033;-78
2024/01/31 00:30:29;;;;;;;9.45;3.95;;;3.90;93.60;;;;;;5055050;28;20040;-78
2024/01/31 00:32:55;;;;;;;6.38;3.30;;;3.90;93.60;;;;;;5056139;28;20510;-78
2024/01/31 00:35:21;;;;;;;7.15;3.58;;;3.90;93.80;;;;;;5055899;28;20032;-78
2024/01/31 00:37:46;;;;;;;5.63;3.00;;;3.80;93.90;;;;;;5054582;28;20028;-78
2024/01/31 00:40:12;;;;;;;7.90;3.63;;;3.80;94.10;;;;;;5055945;28;20390;-78
2024/01/31 00:42:39;;;;;;;7.80;3.50;;;3.80;93.90;;;;;;5055360;28;20114;-77
2024/01/31 00:45:08;;;;;;;6.68;3.28;;;3.90;93.80;;;;;;5055522;28;20036;-78
2024/01/31 00:47:34;;;;;;;7.63;3.65;;;3.70;93.90;;;;;;5054836;28;20119;-78
2024/01/31 00:49:59;;;;;;;8.85;2.88;;;4.00;93.80;;;;;;5055361;28;20036;-78
2024/01/31 00:52:26;;;;;;;6.28;3.22;;;4.00;93.70;;;;;;5054197;28;20036;-77
2024/01/31 00:54:52;;;;;;;7.65;4.03;;;3.90;94.00;;;;;;5055645;28;20174;-78
2024/01/31 00:57:18;;;;;;;6.40;3.13;;;3.90;94.00;;;;;;5054371;28;20047;-78
2024/01/31 00:59:44;;;;;;;7.07;3.03;;;3.90;93.90;;;;;;5054993;28;20041;-78
2024/01/31 01:02:10;;;;;;;5.70;2.75;;;4.00;93.70;;;;;;5055577;28;20036;-78
2024/01/31 01:04:35;;;;;;;6.88;3.58;;;4.00;94.00;;;;;;5054215;28;20407;-78
2024/01/31 01:07:01;;;;;;;7.35;3.80;;;4.10;93.60;;;;;;5054538;28;20367;-78
2024/01/31 01:09:27;;;;;;;9.00;3.45;;;4.00;93.70;;;;;;5054888;28;20041;-78
2024/01/31 01:11:53;;;;;;;7.18;3.42;;;4.00;93.80;;;;;;5053891;28;20048;-78
2024/01/31 01:14:18;;;;;;;6.82;3.35;;;3.90;94.00;;;;;;5054104;28;20028;-77
2024/01/31 01:16:44;;;;;;;5.55;2.97;;;3.80;94.10;;;;;;5054873;28;20036;-77
2024/01/31 01:19:10;;;;;;;6.13;3.25;;;3.70;94.20;;;;;;5054362;28;20071;-78
2024/01/31 01:21:36;;;;;;;7.18;3.15;;;3.90;94.20;;;;;;5054909;28;20032;-78
2024/01/31 01:24:02;;;;;;;6.93;3.30;;;3.90;94.20;;;;;;5055342;28;20047;-78
2024/01/31 01:26:28;;;;;;;5.78;2.80;;;3.70;94.50;;;;;;5053229;28;20068;-78
2024/01/31 01:28:54;;;;;;;6.70;2.85;;;3.60;94.80;;;;;;5053982;28;20174;-77
2024/01/31 01:31:19;;;;;;;5.15;2.70;;;3.50;95.00;;;;;;5053720;28;20121;-78
2024/01/31 01:33:45;;;;;;;6.43;3.20;;;3.60;94.70;;;;;;5054282;28;20431;-77
2024/01/31 01:36:11;;;;;;;8.65;3.47;;;3.80;94.50;;;;;;5054732;28;20047;-78
2024/01/31 01:38:37;;;;;;;8.05;3.10;;;3.70;94.50;;;;;;5055092;28;20066;-78
2024/01/31 01:41:04;;;;;;;5.72;2.85;;;3.80;94.50;;;;;;5053269;28;20111;-78
2024/01/31 01:43:29;;;;;;;6.32;3.42;;;3.80;95.20;;;;;;5054169;28;20055;-78
2024/01/31 01:46:08;;;;;;;7.30;3.47;;;3.60;95.90;;;;;;5053878;28;20044;-78
2024/01/31 01:48:33;;;;;;;6.65;3.15;;;3.70;95.10;;;;;;5055019;28;20026;-78
2024/01/31 01:50:59;;;;;;;5.50;3.08;;;3.60;94.50;;;;;;5052598;28;20547;-78
2024/01/31 01:53:25;;;;;;;6.35;3.78;;;3.70;94.50;;;;;;5054827;28;20032;-78
2024/01/31 01:55:52;;;;;;;6.93;3.20;;;3.70;94.50;;;;;;5054131;28;20529;-78
2024/01/31 01:58:18;;;;;;;6.85;3.00;;;3.70;94.60;;;;;;5052825;28;20033;-78
2024/01/31 02:00:46;;;;;;;8.43;3.25;;;3.70;94.60;;;;;;5053771;28;20738;-77
2024/01/31 02:03:13;;;;;;;5.32;2.92;;;3.90;94.30;;;;;;5053643;28;20140;-77
2024/01/31 02:05:39;;;;;;;6.25;3.05;;;3.90;94.40;;;;;;5055876;28;20386;-77
2024/01/31 02:08:06;;;;;;;6.53;3.05;;;3.90;94.30;;;;;;5058513;28;20033;-78
2024/01/31 02:10:31;;;;;;;6.47;3.13;;;3.90;94.40;;;;;;5057885;28;20540;-78
2024/01/31 02:12:57;;;;;;;6.00;3.20;;;3.80;94.50;;;;;;5057915;28;20032;-78
2024/01/31 02:15:23;;;;;;;8.05;3.30;;;3.60;94.80;;;;;;5058918;28;20037;-78
2024/01/31 02:17:48;;;;;;;6.40;3.03;;;3.50;94.80;;;;;;5057234;28;20045;-78
2024/01/31 02:20:15;;;;;;;7.43;3.85;;;3.50;94.80;;;;;;5057544;28;20040;-78
2024/01/31 02:22:45;;;;;;;7.30;3.60;;;3.40;95.20;;;;;;5059085;28;20048;-78
2024/01/31 02:25:14;;;;;;;6.05;3.38;;;3.30;95.10;;;;;;5057463;28;20028;-78
2024/01/31 02:27:40;;;;;;;5.35;2.72;;;3.30;95.00;;;;;;5056297;28;20036;-78
2024/01/31 02:30:07;;;;;;;7.57;3.83;;;3.30;95.20;;;;;;5057344;28;20035;-78
2024/01/31 02:32:33;;;;;;;7.75;3.95;;;3.10;95.40;;;;;;5058347;28;20060;-77
2024/01/31 02:34:59;;;;;;;6.25;3.00;;;3.20;95.40;;;;;;5056992;28;20136;-78
2024/01/31 02:37:25;;;;;;;6.13;2.97;;;3.10;95.40;;;;;;5057457;28;20402;-77
2024/01/31 02:39:52;;;;;;;5.55;2.92;;;3.20;95.30;;;;;;5057577;28;20036;-77
2024/01/31 02:42:18;;;;;;;6.03;2.50;;;3.30;95.00;;;;;;5057081;28;20052;-77
2024/01/31 02:44:44;;;;;;;8.27;3.20;;;3.30;95.20;;;;;;5056284;28;20128;-78
2024/01/31 02:47:09;;;;;;;5.50;2.88;;;3.20;95.20;;;;;;5057425;28;20041;-78
2024/01/31 02:49:35;;;;;;;7.38;3.35;;;3.20;95.20;;;;;;5056365;28;20043;-78
2024/01/31 02:52:01;;;;;;;7.82;3.35;;;3.30;95.10;;;;;;5056566;28;20037;-78
2024/01/31 02:54:26;;;;;;;6.97;3.08;;;3.40;95.00;;;;;;5056787;28;20036;-78
2024/01/31 02:56:52;;;;;;;6.38;3.25;;;3.20;95.00;;;;;;5057027;28;21518;-78
2024/01/31 02:59:20;;;;;;;5.93;3.05;;;3.10;95.30;;;;;;5056572;28;20061;-77
2024/01/31 03:01:46;;;;;;;5.55;2.97;;;2.90;95.60;;;;;;5056404;28;20043;-77
2024/01/31 03:04:12;;;;;;;6.97;3.33;;;3.00;95.70;;;;;;5055111;28;20021;-77
2024/01/31 03:06:38;;;;;;;5.18;2.83;;;3.20;95.50;;;;;;5055610;28;21241;-77
2024/01/31 03:09:05;;;;;;;5.65;3.30;;;3.20;95.30;;;;;;5056432;28;20052;-77
2024/01/31 03:11:30;;;;;;;7.50;3.50;;;3.10;95.60;;;;;;5057024;28;20132;-78
2024/01/31 03:13:56;;;;;;;6.82;3.38;;;2.90;95.70;;;;;;5056825;28;20039;-77
2024/01/31 03:16:22;;;;;;;5.65;2.80;;;2.80;96.10;;;;;;5055253;28;20032;-78
2024/01/31 03:18:48;;;;;;;6.28;3.13;;;2.80;96.00;;;;;;5057400;28;20036;-77
2024/01/31 03:21:13;;;;;;;4.65;2.92;;;2.80;96.70;;;;;;5057122;28;20033;-78
2024/01/31 03:23:39;;;;;;;5.22;3.15;;;2.80;96.50;;;;;;5038017;28;20131;-78
2024/01/31 03:26:05;;;;;;;6.80;2.67;;;2.70;96.40;;;;;;5057552;28;20037;-77
2024/01/31 03:28:31;;;;;;;4.82;2.83;;;2.70;96.30;;;;;;5053957;28;20115;-78
2024/01/31 03:30:57;;;;;;;7.45;2.83;;;2.70;96.20;;;;;;5055428;28;20035;-77
2024/01/31 03:33:22;;;;;;;5.25;2.65;;;2.60;96.50;;;;;;5055651;28;20028;-77
2024/01/31 03:35:48;;;;;;;7.13;3.08;;;2.80;96.30;;;;;;5057009;28;20024;-77
2024/01/31 03:38:14;;;;;;;8.07;3.03;;;2.80;96.20;;;;;;5056437;28;20032;-77
2024/01/31 03:40:40;;;;;;;5.93;2.65;;;2.80;96.40;;;;;;5056709;28;20097;-77
2024/01/31 03:43:06;;;;;;;6.53;3.08;;;2.70;96.50;;;;;;5055631;28;20051;-77
2024/01/31 03:45:31;;;;;;;6.40;3.13;;;2.70;96.30;;;;;;5056124;28;20028;-77
2024/01/31 03:47:57;;;;;;;6.47;2.85;;;2.70;96.80;;;;;;5057815;28;20109;-77
2024/01/31 03:50:23;;;;;;;7.28;2.97;;;2.60;96.70;;;;;;5055891;28;20064;-77
2024/01/31 03:52:48;;;;;;;4.47;2.58;;;2.70;96.40;;;;;;5055714;28;20043;-78
2024/01/31 03:55:14;;;;;;;6.07;3.00;;;2.80;96.20;;;;;;5056631;28;20219;-78
2024/01/31 03:57:40;;;;;;;5.43;2.78;;;2.80;96.10;;;;;;5056727;28;20078;-77
2024/01/31 04:00:08;;;;;;;5.80;2.75;;;2.80;96.10;;;;;;5055807;28;20045;-78
2024/01/31 04:02:35;;;;;;;5.38;2.78;;;2.70;96.30;;;;;;5054093;28;20037;-75
2024/01/31 04:05:01;;;;;;;5.72;3.00;;;2.40;97.00;;;;;;5051093;28;20040;-76
2024/01/31 04:07:28;;;;;;;7.03;3.22;;;2.30;97.20;;;;;;5050654;28;20043;-76
2024/01/31 04:09:54;;;;;;;6.85;3.15;;;2.40;96.90;;;;;;5049889;28;20079;-76
2024/01/31 04:12:20;;;;;;;6.10;2.40;;;2.60;96.70;;;;;;5051862;28;20119;-76
2024/01/31 04:14:46;;;;;;;5.63;2.80;;;2.60;96.70;;;;;;5049570;28;20390;-76
2024/01/31 04:17:12;;;;;;;8.20;3.08;;;2.70;96.50;;;;;;5048722;28;20033;-76
2024/01/31 04:19:37;;;;;;;5.70;3.35;;;2.70;96.50;;;;;;5050234;28;20039;-76
2024/01/31 04:22:03;;;;;;;6.40;3.22;;;2.70;96.50;;;;;;5046932;28;20072;-76
2024/01/31 04:24:29;;;;;;;5.72;2.53;;;2.70;96.60;;;;;;5048879;28;20028;-76
2024/01/31 04:26:54;;;;;;;5.88;2.92;;;2.80;96.60;;;;;;5048905;28;20463;-76
2024/01/31 04:29:20;;;;;;;6.03;3.63;;;2.70;96.70;;;;;;5048433;28;20404;-76
2024/01/31 04:31:51;;;;;;;7.20;3.67;;;2.70;96.40;;;;;;5047833;28;20070;-76
2024/01/31 04:34:17;;;;;;;5.97;2.92;;;2.70;96.40;;;;;;5049370;28;20110;-76
2024/01/31 04:36:43;;;;;;;7.93;3.00;;;2.70;96.40;;;;;;5047853;28;20123;-76
2024/01/31 04:39:09;;;;;;;6.65;3.10;;;2.80;96.30;;;;;;5048832;28;21340;-76
2024/01/31 04:41:35;;;;;;;5.63;2.88;;;2.80;96.30;;;;;;5049450;28;20036;-77
2024/01/31 04:44:01;;;;;;;5.60;2.75;;;2.70;96.20;;;;;;5050261;28;20712;-76
2024/01/31 04:46:26;;;;;;;5.57;3.00;;;2.70;96.40;;;;;;5051153;28;20070;-77
2024/01/31 04:48:52;;;;;;;6.00;2.65;;;2.70;96.60;;;;;;5051247;28;20474;-76
2024/01/31 04:51:18;;;;;;;6.40;3.38;;;2.80;96.20;;;;;;5050267;28;20043;-76
2024/01/31 04:53:44;;;;;;;5.20;2.40;;;2.70;96.20;;;;;;5051613;28;20111;-77
2024/01/31 04:56:09;;;;;;;6.88;3.08;;;2.70;96.20;;;;;;5051580;28;20056;-76
2024/01/31 04:58:35;;;;;;;5.45;2.92;;;2.50;96.80;;;;;;5047776;28;20035;-76
2024/01/31 05:01:01;;;;;;;7.70;2.92;;;2.50;96.80;;;;;;5047814;28;20040;-77
2024/01/31 05:03:27;;;;;;;7.00;3.33;;;2.40;97.20;;;;;;5048630;28;20043;-76
2024/01/31 05:05:53;;;;;;;6.03;2.70;;;2.30;97.50;;;;;;5047760;28;20036;-76
2024/01/31 05:08:19;;;;;;;6.10;3.05;;;2.30;97.60;;;;;;5047440;28;20067;-77
2024/01/31 05:10:45;;;;;;;5.05;2.63;;;2.10;97.70;;;;;;5048312;28;20442;-76
2024/01/31 05:13:12;;;;;;;5.53;2.75;;;2.00;98.10;;;;;;5048495;28;20029;-76
2024/01/31 05:15:38;;;;;;;5.68;3.20;;;2.00;98.40;;;;;;5047273;28;20039;-76
2024/01/31 05:18:04;;;;;;;7.47;3.55;;;1.90;98.40;;;;;;5047213;28;20122;-76
2024/01/31 05:20:30;;;;;;;6.85;2.70;;;1.90;98.70;;;;;;5047940;28;20037;-76
2024/01/31 05:22:58;;;;;;;5.57;3.00;;;2.00;98.20;;;;;;5045624;28;20040;-77
2024/01/31 05:25:24;;;;;;;5.63;2.80;;;2.10;97.90;;;;;;5046873;28;20044;-77
2024/01/31 05:27:50;;;;;;;4.80;2.70;;;2.30;97.60;;;;;;5047587;28;20027;-77
2024/01/31 05:30:16;;;;;;;7.15;2.75;;;2.40;97.30;;;;;;5046980;28;20040;-76
2024/01/31 05:32:42;;;;;;;6.57;2.50;;;2.60;96.90;;;;;;5048183;28;20137;-76
2024/01/31 05:35:07;;;;;;;4.75;2.58;;;2.50;97.10;;;;;;5046443;28;20529;-77
2024/01/31 05:37:33;;;;;;;6.78;3.00;;;2.40;97.30;;;;;;5047105;28;20400;-76
2024/01/31 05:39:59;;;;;;;4.45;2.60;;;2.40;97.40;;;;;;5048408;28;20044;-76
2024/01/31 05:42:25;;;;;;;5.20;2.83;;;2.40;97.40;;;;;;5046978;28;20041;-76
2024/01/31 05:44:53;;;;;;;6.35;3.10;;;2.30;97.60;;;;;;5047562;28;20045;-76
2024/01/31 05:47:19;;;;;;;8.40;3.88;;;2.40;97.70;;;;;;5047445;28;20032;-76
2024/01/31 05:49:45;;;;;;;8.48;2.63;;;2.10;98.60;;;;;;5048175;28;20049;-76
2024/01/31 05:52:11;;;;;;;6.93;3.03;;;2.10;98.80;;;;;;5046775;28;20044;-76
2024/01/31 05:54:38;;;;;;;5.65;2.97;;;2.30;98.10;;;;;;5048143;28;20040;-76
2024/01/31 05:57:04;;;;;;;6.85;3.75;;;2.20;98.20;;;;;;5047001;28;20039;-76
2024/01/31 05:59:30;;;;;;;5.57;2.90;;;2.20;98.00;;;;;;5046522;28;20029;-76
2024/01/31 06:01:56;;;;;;;4.53;2.25;;;2.20;98.00;;;;;;5048359;28;20037;-76
2024/01/31 06:04:21;;;;;;;7.40;3.22;;;2.10;98.10;;;;;;5046484;28;20149;-77
2024/01/31 06:06:47;;;;;;;5.32;2.33;;;2.30;97.70;;;;;;5046654;28;20116;-76
2024/01/31 06:09:13;;;;;;;5.68;2.88;;;2.30;97.50;;;;;;5047506;28;20143;-76
2024/01/31 06:11:39;;;;;;;5.60;2.78;;;2.40;97.10;;;;;;5046862;28;20524;-76
2024/01/31 06:14:04;;;;;;;4.28;2.20;;;2.50;97.10;;;;;;5046205;28;20135;-76
2024/01/31 06:16:32;;;;;;;7.28;2.75;;;2.30;97.40;;;;;;5046377;28;20948;-76
2024/01/31 06:18:58;;;;;;;5.57;2.40;;;2.50;97.30;;;;;;5048521;28;20330;-75
2024/01/31 06:21:23;;;;;;;5.97;2.53;;;2.40;97.30;;;;;;5050537;28;20159;-75
2024/01/31 06:23:49;;;;;;;5.13;3.03;;;2.30;97.70;;;;;;5050620;28;20051;-72
2024/01/31 06:26:15;;;;;;;4.75;2.60;;;2.30;97.70;;;;;;5048805;28;20035;-75
2024/01/31 06:28:40;;;;;;;5.43;2.53;;;2.30;97.40;;;;;;5047654;28;20032;-79
2024/01/31 06:31:26;;;;;;;6.70;3.05;;;2.40;98.00;;;;;;5048266;28;20025;-77
2024/01/31 06:33:51;;;;;;;5.28;2.50;;;2.20;98.10;;;;;;5047278;28;20561;-76
2024/01/31 06:36:18;;;;;;;6.38;2.58;;;2.10;98.10;;;;;;5047090;28;20037;-77
2024/01/31 06:38:45;;;;;;;5.53;2.67;;;2.20;97.80;;;;;;5046345;28;20021;-78
2024/01/31 06:41:13;;;;;;;5.35;2.33;;;2.10;98.00;;;;;;5044931;28;20041;-78
2024/01/31 06:43:39;;;;;;;6.47;2.83;;;2.10;98.50;;;;;;5047611;28;20522;-78
2024/01/31 06:46:04;;;;;;;7.05;3.17;;;1.90;98.70;;;;;;5045472;28;20098;-78
2024/01/31 06:48:30;;;;;;;6.75;2.92;;;1.70;99.60;;;;;;5047723;28;20134;-78
2024/01/31 06:50:55;;;;;;;7.70;3.35;;;1.80;99.50;;;;;;5046430;28;20090;-78
2024/01/31 06:53:21;;;;;;;8.38;3.00;;;1.80;99.90;;;;;;5044438;28;20732;-79
2024/01/31 06:55:47;;;;;;;5.90;2.90;;;1.60;99.80;;;;;;5050788;28;20452;-78
2024/01/31 06:58:13;;;;;;;5.07;2.53;;;1.80;99.80;;;;;;5048224;28;20028;-77
2024/01/31 07:00:39;;;;;;;5.35;2.38;;;1.80;99.20;;;;;;5044991;28;20040;-76
2024/01/31 07:03:05;;;;;;;5.93;2.75;;;1.90;99.10;;;;;;5042337;28;20041;-77
2024/01/31 07:05:30;;;;;;;8.23;2.88;;;1.80;99.30;;;;;;5047308;28;20082;-77
2024/01/31 07:07:56;;;;;;;6.45;2.83;;;1.90;99.10;;;;;;5045677;28;20036;-76
2024/01/31 07:10:21;;;;;;;5.05;2.85;;;1.80;99.40;;;;;;5046405;28;20040;-76
2024/01/31 07:12:47;;;;;;;6.25;2.60;;;1.90;99.40;;;;;;5049441;28;20682;-77
2024/01/31 07:15:14;;;;;;;6.93;2.95;;;2.00;99.00;;;;;;5049328;28;20406;-77
2024/01/31 07:17:40;;;;;;;6.78;2.72;;;1.90;98.90;;;;;;5048425;28;20036;-76
2024/01/31 07:20:08;;;;;;;9.77;3.20;;;2.00;98.90;;;;;;5049334;28;20037;-76
2024/01/31 07:22:33;;;;;;;6.38;2.67;;;2.00;99.30;;;;;;5049823;28;20104;-78
2024/01/31 07:24:59;;;;;;;6.43;3.13;;;1.90;99.40;;;;;;5051729;28;20041;-77
2024/01/31 07:27:25;;;;;;;6.55;3.22;;;1.80;99.80;;;;;;5051019;28;20059;-77
2024/01/31 07:29:50;;;;;;;5.40;2.92;;;1.90;99.40;;;;;;5049586;28;20047;-77
2024/01/31 07:32:16;;;;;;;5.88;2.78;;;2.10;99.20;;;;;;5049617;28;20683;-78
2024/01/31 07:34:42;;;;;;;5.88;2.65;;;1.80;99.90;;;;;;5044133;28;20032;-79
2024/01/31 07:37:08;;;;;;;5.03;3.00;;;1.80;99.90;;;;;;5048173;28;20037;-78
2024/01/31 07:39:33;;;;;;;6.20;2.55;;;1.80;99.90;;;;;;5048889;28;20400;-79
2024/01/31 07:41:59;;;;;;;7.47;3.03;;;1.90;99.80;;;;;;5050555;28;20031;-78
2024/01/31 07:44:24;;;;;;;5.40;2.65;;;2.00;99.70;;;;;;5049428;28;20505;-79
2024/01/31 07:46:50;;;;;;;6.18;2.63;;;2.10;99.50;;;;;;5049024;28;20083;-79
2024/01/31 07:49:16;;;;;;;6.72;2.78;;;2.30;99.30;;;;;;5049822;28;20025;-79
2024/01/31 07:51:43;;;;;;;6.35;2.55;;;2.40;99.00;;;;;;5048660;28;20078;-79
2024/01/31 07:54:09;;;;;;;5.50;2.40;;;2.40;98.80;;;;;;5048529;28;20111;-79
2024/01/31 07:56:35;;;;;;;6.05;2.58;;;2.40;99.20;;;;;;5049364;28;20036;-78
2024/01/31 07:59:00;;;;;;;5.25;2.80;;;2.40;99.50;;;;;;5047571;28;20496;-79
2024/01/31 08:01:26;;;;;;;6.15;2.60;;;2.60;99.30;;;;;;5049520;28;20041;-79
2024/01/31 08:03:53;;;;;;;5.50;2.50;;;2.50;99.40;;;;;;5045952;28;20056;-78
2024/01/31 08:06:18;;;;;;;4.43;2.45;;;2.50;99.80;;;;;;5048556;28;20033;-79
2024/01/31 08:08:45;;;;;;;5.18;2.47;;;2.50;99.90;;;;;;5049951;28;20587;-78
2024/01/31 08:11:12;;;;;;;4.80;2.65;;;2.60;99.60;;;;;;5049330;28;20086;-79
2024/01/31 08:13:39;;;;;;;5.43;2.55;;;2.50;99.90;;;;;;5047647;28;20118;-78
2024/01/31 08:16:10;;;;;;;4.75;2.42;;;2.60;99.90;;;;;;5048533;28;20653;-77
2024/01/31 08:18:36;;;;;;;5.53;2.70;;;2.60;99.90;;;;;;5048828;28;20102;-78
2024/01/31 08:21:03;;;;;;;5.60;2.88;;;2.70;99.60;;;;;;5047844;28;20479;-78
2024/01/31 08:23:28;;;;;;;7.53;3.05;;;2.60;99.70;;;;;;5047445;28;20100;-78
2024/01/31 08:25:54;;;;;;;7.60;3.03;;;2.60;99.80;;;;;;5048706;28;20032;-78
2024/01/31 08:28:19;;;;;;;8.52;4.30;;;2.60;99.90;;;;;;5047739;28;20032;-77
2024/01/31 08:30:45;;;;;;;5.57;3.05;;;2.60;99.90;;;;;;5046835;28;20111;-77
2024/01/31 08:33:11;;;;;;;4.47;2.03;;;2.60;99.90;;;;;;5046807;28;20119;-77
2024/01/31 08:35:36;;;;;;;6.82;3.63;;;2.60;99.90;;;;;;5048446;28;20060;-78
2024/01/31 08:38:02;;;;;;;6.53;3.22;;;2.70;99.90;;;;;;5047894;28;20053;-78
2024/01/31 08:40:28;;;;;;;6.63;3.13;;;2.70;99.90;;;;;;5047194;28;20044;-77
2024/01/31 08:42:58;;;;;;;6.35;3.42;;;2.60;99.90;;;;;;5047939;28;20075;-77
2024/01/31 08:45:26;;;;;;;7.57;3.13;;;2.60;99.90;;;;;;5046806;28;20494;-78
2024/01/31 08:47:52;;;;;;;7.22;3.05;;;2.60;99.90;;;;;;5046705;28;20029;-77
2024/01/31 08:50:18;;;;;;;5.78;3.33;;;2.70;99.90;;;;;;5049845;28;20406;-79
2024/01/31 08:52:43;;;;;;;7.55;3.58;;;2.80;99.90;;;;;;5050217;28;20452;-78
2024/01/31 08:55:09;;;;;;;6.18;3.10;;;2.90;99.90;;;;;;5050035;28;20037;-79
2024/01/31 08:57:35;;;;;;;7.85;3.22;;;2.80;99.90;;;;;;5051491;28;20036;-79
2024/01/31 09:00:04;;;;;;;6.65;3.00;;;2.80;99.90;;;;;;5050072;28;20033;-79
2024/01/31 09:02:29;;;;;;;7.20;3.13;;;2.90;99.90;;;;;;5049107;28;20045;-78
2024/01/31 09:04:55;;;;;;;6.03;3.08;;;2.90;99.90;;;;;;5050816;28;20036;-78
2024/01/31 09:07:21;;;;;;;7.28;3.47;;;2.90;99.90;;;;;;5050667;28;20083;-79
2024/01/31 09:09:46;;;;;;;6.53;3.40;;;2.90;99.90;;;;;;5049925;28;20126;-78
2024/01/31 09:12:12;;;;;;;8.10;3.65;;;3.00;99.90;;;;;;5050650;28;20036;-79
2024/01/31 09:14:38;;;;;;;7.40;3.38;;;3.10;99.90;;;;;;5030138;28;21002;-79
2024/01/31 09:17:05;;;;;;;7.28;3.97;;;3.30;99.90;;;;;;5050125;28;21234;-78
2024/01/31 09:19:30;;;;;;;5.75;3.60;;;3.30;99.70;;;;;;5048940;28;20028;-77
2024/01/31 09:21:56;;;;;;;6.55;3.72;;;3.30;99.80;;;;;;5049239;28;20516;-78
2024/01/31 09:24:22;;;;;;;8.40;3.55;;;3.40;99.80;;;;;;5048794;28;20176;-79
2024/01/31 09:26:47;;;;;;;6.30;3.08;;;3.50;99.90;;;;;;5050972;28;20033;-77
2024/01/31 09:29:13;;;;;;;6.18;3.30;;;3.60;99.90;;;;;;5049652;28;20037;-78
2024/01/31 09:31:39;;;;;;;9.63;3.88;;;3.70;99.90;;;;;;5049468;28;20098;-78
2024/01/31 09:34:04;;;;;;;7.95;4.03;;;3.60;99.90;;;;;;5050300;28;20040;-78
2024/01/31 09:36:30;;;;;;;6.25;3.72;;;3.50;99.30;;;;;;5050122;28;20037;-78
2024/01/31 09:38:55;;;;;;;6.75;3.47;;;3.70;99.30;;;;;;5049061;28;20115;-78
2024/01/31 09:41:21;;;;;;;7.18;3.75;;;3.80;99.50;;;;;;5050521;28;20040;-79
2024/01/31 09:43:47;;;;;;;5.60;3.30;;;3.90;99.30;;;;;;5048991;28;20037;-79
2024/01/31 09:46:15;;;;;;;6.20;3.42;;;4.00;99.10;;;;;;5048366;28;20070;-78
2024/01/31 09:48:41;;;;;;;6.70;3.80;;;4.10;99.10;;;;;;5050169;28;20451;-79
2024/01/31 09:51:07;;;;;;;7.90;3.50;;;4.20;98.80;;;;;;5049415;28;20037;-78
2024/01/31 09:53:36;;;;;;;8.93;3.42;;;4.30;98.10;;;;;;5048933;28;20037;-78
2024/01/31 09:56:04;;;;;;;6.90;3.50;;;4.40;97.80;;;;;;5049073;28;20032;-78
2024/01/31 09:58:29;;;;;;;6.60;3.20;;;4.40;97.50;;;;;;5047543;28;20028;-78
2024/01/31 10:00:57;;;;;;;5.78;3.10;;;4.50;97.50;;;;;;5048481;28;20029;-78
2024/01/31 10:03:24;;;;;;;14.13;2.97;;;4.60;97.30;;;;;;5050191;28;20048;-78
2024/01/31 10:05:50;;;;;;;6.72;3.42;;;4.70;97.20;;;;;;5048249;28;20147;-78
2024/01/31 10:08:15;;;;;;;5.53;2.92;;;4.80;97.00;;;;;;5048457;28;20045;-79
2024/01/31 10:10:41;;;;;;;7.32;3.38;;;5.00;96.80;;;;;;5049219;28;20068;-77
2024/01/31 10:13:08;;;;;;;6.88;3.65;;;5.10;97.00;;;;;;5048779;28;20037;-78
2024/01/31 10:15:33;;;;;;;6.43;3.80;;;5.10;97.50;;;;;;5049235;28;20036;-78
2024/01/31 10:17:59;;;;;;;7.63;4.15;;;4.90;96.80;;;;;;5049803;28;20032;-78
2024/01/31 10:20:25;;;;;;;6.35;3.35;;;5.00;96.60;;;;;;5048598;28;20047;-79
2024/01/31 10:22:52;;;;;;;9.07;3.70;;;5.20;96.20;;;;;;5048901;28;20051;-78
2024/01/31 10:25:18;;;;;;;7.20;3.65;;;5.30;96.30;;;;;;5047879;28;20707;-78
2024/01/31 10:27:46;;;;;;;11.32;4.78;;;5.50;96.30;;;;;;5052280;28;21122;-77
2024/01/31 10:30:13;;;;;;;9.95;5.90;;;5.50;97.50;;;;;;5052362;28;20612;-78
2024/01/31 10:32:43;;;;;;;11.15;6.75;;;5.50;97.40;;;;;;5053649;28;20036;-78
2024/01/31 10:35:11;;;;;;;10.40;7.05;;;5.60;97.50;;;;;;5053058;28;20084;-78
2024/01/31 10:37:37;;;;;;;12.50;7.03;;;5.60;97.40;;;;;;5052298;28;20037;-79
2024/01/31 10:40:06;;;;;;;13.70;6.43;;;5.60;97.00;;;;;;5052939;28;20111;-78
2024/01/31 10:42:32;;;;;;;11.30;6.47;;;5.80;97.00;;;;;;5054192;28;20040;-78
2024/01/31 10:44:58;;;;;;;13.35;6.05;;;5.80;97.30;;;;;;5053050;28;20043;-78
2024/01/31 10:47:24;;;;;;;11.07;6.43;;;5.90;97.10;;;;;;5052750;28;20456;-77
2024/01/31 10:49:51;;;;;;;10.55;6.22;;;5.90;96.80;;;;;;5052702;28;20072;-78
2024/01/31 10:52:20;;;;;;;13.38;7.18;;;5.90;96.50;;;;;;5052892;28;20588;-78
2024/01/31 10:54:59;;;;;;;11.32;5.63;;;6.00;96.20;;;;;;5052197;28;21777;-77
2024/01/31 10:57:26;;;;;;;11.88;5.82;;;6.10;96.60;;;;;;5052365;28;20551;-78
2024/01/31 10:59:52;;;;;;;10.00;5.72;;;6.20;96.20;;;;;;5051544;28;20048;-78
2024/01/31 11:02:18;;;;;;;9.50;5.22;;;6.30;96.00;;;;;;5051595;28;20024;-78
2024/01/31 11:04:45;;;;;;;11.48;5.25;;;6.40;95.60;;;;;;5051833;28;20056;-78
2024/01/31 11:07:19;;;;;;;12.10;5.28;;;6.50;95.60;;;;;;5051891;28;20488;-78
2024/01/31 11:09:46;;;;;;;9.63;5.65;;;6.60;95.60;;;;;;5051740;28;20048;-78
2024/01/31 11:12:16;;;;;;;8.27;4.50;;;6.70;95.20;;;;;;5051990;28;20058;-78
2024/01/31 11:14:43;;;;;;;9.23;4.60;;;7.00;95.50;;;;;;5052447;28;20575;-78
2024/01/31 11:17:17;;;;;;;10.95;5.57;;;7.00;95.40;;;;;;5052945;28;20037;-78
2024/01/31 11:19:58;;;;;;;75.65;67.10;;;7.10;95.40;;;;;;5051422;28;20029;-78
2024/01/31 11:22:24;;;;;;;50.63;33.25;;;7.00;95.30;;;;;;5051791;28;20040;-78
2024/01/31 11:24:52;;;;;;;45.88;32.63;;;7.00;95.30;;;;;;5051552;28;20040;-78
2024/01/31 11:27:18;;;;;;;29.05;21.33;;;7.00;95.10;;;;;;5052515;28;20044;-78
2024/01/31 11:29:48;;;;;;;20.35;14.25;;;7.10;95.00;;;;;;5051349;28;20036;-78
2024/01/31 11:32:15;;;;;;;14.00;10.55;;;7.10;95.10;;;;;;5051513;28;20060;-78
2024/01/31 11:34:41;;;;;;;11.57;7.90;;;7.10;94.80;;;;;;5052443;28;20044;-78
2024/01/31 11:37:07;;;;;;;16.98;9.93;;;7.10;94.60;;;;;;5050992;28;20675;-78
2024/01/31 11:39:33;;;;;;;30.67;14.75;;;7.20;94.90;;;;;;5050983;28;20021;-77
2024/01/31 11:41:59;;;;;;;19.83;10.90;;;7.30;94.90;;;;;;5052405;28;20047;-78
2024/01/31 11:44:25;;;;;;;14.43;7.55;;;7.30;94.50;;;;;;5051321;28;20048;-77
2024/01/31 11:46:52;;;;;;;7.53;3.85;;;7.40;94.00;;;;;;5050527;28;20125;-78
2024/01/31 11:49:18;;;;;;;7.28;3.60;;;7.30;93.40;;;;;;5049426;28;20074;-77
2024/01/31 11:51:43;;;;;;;5.15;2.60;;;7.40;93.00;;;;;;5051203;28;20044;-78
2024/01/31 11:54:10;;;;;;;11.63;5.78;;;7.60;93.10;;;;;;5051913;28;20036;-79
2024/01/31 11:56:36;;;;;;;13.15;6.40;;;7.70;93.10;;;;;;5052375;28;20036;-78
2024/01/31 11:59:03;;;;;;;7.25;3.67;;;7.90;92.50;;;;;;5051189;28;20909;-79
2024/01/31 12:01:31;;;;;;;6.15;3.13;;;7.90;92.30;;;;;;5050056;28;20029;-78
2024/01/31 12:03:56;;;;;;;5.38;2.70;;;7.80;92.20;;;;;;5051533;28;20062;-78
2024/01/31 12:06:22;;;;;;;5.28;2.80;;;7.70;92.40;;;;;;5051086;28;20032;-78
2024/01/31 12:08:49;;;;;;;4.47;2.42;;;7.60;92.40;;;;;;5049286;28;20502;-78
2024/01/31 12:11:16;;;;;;;6.13;2.67;;;7.70;92.70;;;;;;5050874;28;20800;-78
2024/01/31 12:13:43;;;;;;;11.65;2.88;;;7.80;93.00;;;;;;5052220;28;20033;-77
2024/01/31 12:16:10;;;;;;;7.10;3.08;;;7.90;93.10;;;;;;5051219;28;20043;-78
2024/01/31 12:18:36;;;;;;;7.57;3.22;;;7.90;92.50;;;;;;5049692;28;20101;-77
2024/01/31 12:21:06;;;;;;;7.40;2.95;;;7.80;92.30;;;;;;5051244;28;20490;-76
2024/01/31 12:23:32;;;;;;;9.55;3.35;;;7.80;92.80;;;;;;5050024;28;20056;-76
2024/01/31 12:25:58;;;;;;;8.35;3.40;;;7.80;92.90;;;;;;5048413;28;20387;-76
2024/01/31 12:28:25;;;;;;;9.18;3.42;;;7.70;93.00;;;;;;5048162;28;20029;-75
2024/01/31 12:30:51;;;;;;;11.88;6.85;;;7.70;93.00;;;;;;5046627;28;20734;-76
2024/01/31 12:33:17;;;;;;;9.80;4.65;;;7.70;93.20;;;;;;5047238;28;20039;-76
2024/01/31 12:35:44;;;;;;;7.88;3.63;;;7.80;93.40;;;;;;5047146;28;20430;-76
2024/01/31 12:38:11;;;;;;;7.72;3.75;;;7.80;93.20;;;;;;5046552;28;20059;-75
2024/01/31 12:40:37;;;;;;;10.05;5.68;;;7.80;93.20;;;;;;5046350;28;20040;-76
2024/01/31 12:43:04;;;;;;;12.15;6.72;;;7.90;92.90;;;;;;5047831;28;20149;-76
2024/01/31 12:45:30;;;;;;;8.07;5.13;;;7.90;93.00;;;;;;5048642;28;20116;-75
2024/01/31 12:47:56;;;;;;;7.45;4.70;;;7.80;92.80;;;;;;5059182;28;20166;-75
2024/01/31 12:50:21;;;;;;;9.25;4.18;;;8.00;92.80;;;;;;5056374;28;20173;-75